Santa Cruz, CA

7:13 AM PDT on August 22, 2014 (GMT -0700)
San Jose International | Change Station
CLOSE
Current Station
Airport
Location: San Jose,
Elevation: 59 ft
Nearby Weather Stations

Elev 59 ft 37.36 °N, 121.92 °W | Updated 20 minutes ago

Partly Cloudy
Partly Cloudy
61 °F
Feels Like 61 °F
N
5
Wind Variable Wind from SSE

Today
High -- | Low -- °F
--% Chance of Precip.
Yesterday
High -- | Low -- °F
Precip. -- in
6:30 AM 7:50 PM
Waning Crescent, 8% visible
Pressure 29.93 in
Visibility 10.0 miles
Clouds Few 500 ft
Dew Point 53 °F
Humidity 75%
Rainfall 0.00 in
Snow Depth Not available.
UV 0 out of 12
Pollen 5.70 out of 12
Air Quality Not available.
Flu Activity Not available.
METAR KSJC 221353Z 15004KT 10SM FEW005 16/12 A2993 RMK AO2 SLP133 T01610117

More Conditions Fewer Conditions

Pressure 29.93 in
Visibility 10.0 miles
Clouds Few 500 ft
Dew Point 53 °F
Humidity 75%
Rainfall 0.00 in
Snow Depth Not available.
UV 0 out of 12
Pollen 5.70 out of 12
Air Quality Not available.
Flu Activity Not available.
METAR KSJC 221353Z 15004KT 10SM FEW005 16/12 A2993 RMK AO2 SLP133 T01610117

More Conditions Fewer Conditions

10-Day Weather Forecast

Almanac

Astronomy

Aug. 22, 2014 Rise Set
Actual Time 6:30 AM PDT 7:50 PM PDT
Civil Twilight 6:03 AM PDT 8:17 PM PDT
Nautical Twilight 5:31 AM PDT 8:49 PM PDT
Astronomical Twilight 4:57 AM PDT 9:23 PM PDT
Moon 3:59 AM PDT 6:01 PM PDT
Length of Visible Light 14h 13m
Length of Day
13h 19m
Tomorrow will be 2m 10s shorter.
Waning Crescent, 8% of the Moon is Illuminated
Today
Waning Crescent
Aug 25
New
Sep 2
First Quarter
Sep 8
Full
Sep 15
Last Quarter

Today's Extremes

State Highs State Lows

Community

WunderPhotos

Upload Photos

1,746,175 photos uploaded!

Nearby

Snow Depth

Station Depth Elevation
Leavitt Lake 0 in 9400 ft
Blue Lakes 0 in 8000 ft
Forestdale Creek 0 in 8029 ft
Ebbetts Pass 0 in 8700 ft
Leavitt Meadows 1 in 7200 ft

Earthquake Activity

City Distance Mag. Time & Date
Berkeley, California 62 miles 2.6 7:41 PM PDT
2014-08-16
King City, California 79 miles 2.7 10:26 PM PDT
2014-08-15
Minimum magnitude displayed is 2.5.

Coastal Water Temperatures

Place Temperature
Monterey, CA 62.1 °F
Redwood City, CA 73.0 °F

Nearby Weather Stations